In Rescue
 
Open Full Screen Window  High Contrast Mode
Wind Gusting 14 knots
08
May 20, 2019 3:47 PM EDT
Weather Information
Wind Direction
  280 °
Wind Speed
  08 kt (9 mph)
Wind Gust
  14 kt (16 mph)
Altimeter
30.00 in
Visibility
10 SM
Temperature
11° C
52° F
Dewpoint
04° C
39° F
Humidity
62%
1hr Rain Fall
00.00 in.
24hr Rain Fall
00.18 in.
Sky Condition
Overcast @ 2,900 ft
MVFR

METAR KIKW 201947Z AUTO 28008G14KT 10SM OVC029 11/04 A3000 RMK AO2 T01120042

FAA Disclaimer: The data displayed is for advisory purposes only and is not to be used for flight planning or operations.